createdAt,value
2023-04-17T00:00:07.436Z,9.40
2023-04-17T00:02:40.330Z,9.41
2023-04-17T00:05:09.565Z,9.42
2023-04-17T00:07:39.956Z,9.43
2023-04-17T00:10:08.968Z,9.43
2023-04-17T00:12:37.143Z,9.44
2023-04-17T00:15:05.674Z,9.43
2023-04-17T00:17:35.352Z,9.43
2023-04-17T00:20:13.563Z,9.43
2023-04-17T00:22:42.373Z,9.43
2023-04-17T00:25:13.088Z,9.43
2023-04-17T00:27:42.835Z,9.44
2023-04-17T00:30:11.177Z,9.43
2023-04-17T00:32:41.638Z,9.43
2023-04-17T00:35:10.076Z,9.42
2023-04-17T00:37:38.071Z,9.42
2023-04-17T00:40:06.988Z,9.42
2023-04-17T00:42:35.564Z,9.42
2023-04-17T00:45:05.573Z,9.43
2023-04-17T00:47:33.739Z,9.43
2023-04-17T00:50:02.924Z,9.43
2023-04-17T00:52:31.680Z,9.45
2023-04-17T00:55:00.552Z,9.44
2023-04-17T00:57:28.850Z,9.44
2023-04-17T00:59:57.717Z,9.45
2023-04-17T01:02:26.889Z,9.46
2023-04-17T01:04:55.696Z,9.46
2023-04-17T01:07:23.797Z,9.47
2023-04-17T01:09:51.912Z,9.47
2023-04-17T01:12:21.759Z,9.47
2023-04-17T01:14:51.625Z,9.47
2023-04-17T01:17:20.602Z,9.47
2023-04-17T01:19:49.510Z,9.45
2023-04-17T01:22:17.715Z,9.44
2023-04-17T01:24:46.105Z,9.43
2023-04-17T01:27:15.089Z,9.41
2023-04-17T01:29:44.755Z,9.39
2023-04-17T01:32:12.995Z,9.38
2023-04-17T01:34:41.034Z,9.37
2023-04-17T01:37:09.457Z,9.36
2023-04-17T01:39:37.765Z,9.35
2023-04-17T01:42:06.340Z,9.34
2023-04-17T01:44:36.939Z,9.35
2023-04-17T01:47:05.580Z,9.34
2023-04-17T01:49:33.662Z,9.34
2023-04-17T01:52:01.714Z,9.34
2023-04-17T01:54:30.319Z,9.34
2023-04-17T01:56:58.318Z,9.33
2023-04-17T01:59:27.217Z,9.32
2023-04-17T02:01:55.521Z,9.32
2023-04-17T02:04:23.938Z,9.32
2023-04-17T02:06:52.415Z,9.31
2023-04-17T02:09:20.406Z,9.31
2023-04-17T02:11:48.439Z,9.31
2023-04-17T02:14:17.893Z,9.31
2023-04-17T02:16:46.231Z,9.31
2023-04-17T02:19:14.460Z,9.30
2023-04-17T02:21:42.460Z,9.29
2023-04-17T02:24:10.767Z,9.26
2023-04-17T02:26:38.955Z,9.27
2023-04-17T02:29:07.202Z,9.26
2023-04-17T02:31:35.704Z,9.24
2023-04-17T02:34:03.709Z,9.23
2023-04-17T02:36:32.739Z,9.23
2023-04-17T02:39:01.054Z,9.23
2023-04-17T02:41:29.159Z,9.21
2023-04-17T02:43:58.297Z,9.19
2023-04-17T02:46:26.402Z,9.20
2023-04-17T02:48:54.642Z,9.21
2023-04-17T02:51:23.054Z,9.21
2023-04-17T02:53:51.185Z,9.19
2023-04-17T02:56:19.498Z,9.18
2023-04-17T02:58:47.640Z,9.17
2023-04-17T03:01:15.708Z,9.16
2023-04-17T03:03:45.787Z,9.17
2023-04-17T03:06:15.290Z,9.18
2023-04-17T03:08:43.594Z,9.19
2023-04-17T03:11:11.760Z,9.21
2023-04-17T03:13:39.820Z,9.23
2023-04-17T03:16:07.937Z,9.23
2023-04-17T03:18:41.501Z,9.25
2023-04-17T03:21:10.016Z,9.26
2023-04-17T03:23:38.327Z,9.26
2023-04-17T03:26:07.761Z,9.26
2023-04-17T03:28:35.973Z,9.28
2023-04-17T03:31:04.054Z,9.29
2023-04-17T03:33:34.074Z,9.30
2023-04-17T03:36:02.242Z,9.30
2023-04-17T03:38:31.754Z,9.32
2023-04-17T03:40:59.862Z,9.33
2023-04-17T03:43:28.680Z,9.34
2023-04-17T03:45:56.797Z,9.35
2023-04-17T03:48:25.111Z,9.36
2023-04-17T03:50:53.283Z,9.37
2023-04-17T03:53:22.115Z,9.37
2023-04-17T03:55:50.527Z,9.38
2023-04-17T03:58:28.336Z,9.39
2023-04-17T04:00:59.089Z,9.40
2023-04-17T04:03:30.010Z,9.40
2023-04-17T04:05:59.152Z,9.39
2023-04-17T04:08:27.302Z,9.40
2023-04-17T04:10:55.704Z,9.41
2023-04-17T04:13:31.134Z,9.44
2023-04-17T04:16:01.151Z,9.44
2023-04-17T04:18:31.002Z,9.45
2023-04-17T04:20:59.463Z,9.46
2023-04-17T04:23:31.728Z,9.49
2023-04-17T04:26:02.026Z,9.51
2023-04-17T04:28:51.208Z,9.53
2023-04-17T04:31:29.877Z,9.57
2023-04-17T04:33:59.422Z,9.60
2023-04-17T04:36:30.102Z,9.63
2023-04-17T04:39:11.699Z,9.67
2023-04-17T04:41:45.998Z,9.67
2023-04-17T04:44:14.601Z,9.70
2023-04-17T04:46:44.344Z,9.72
2023-04-17T04:49:13.319Z,9.75
2023-04-17T04:51:41.591Z,9.76
2023-04-17T04:54:10.790Z,9.78
2023-04-17T04:56:45.936Z,9.80
2023-04-17T04:59:15.443Z,9.83
2023-04-17T05:01:48.171Z,9.85
2023-04-17T05:04:17.846Z,9.88
2023-04-17T05:06:46.432Z,9.89
2023-04-17T05:09:16.805Z,9.92
2023-04-17T05:11:45.760Z,9.95
2023-04-17T05:14:13.911Z,9.98
2023-04-17T05:16:42.664Z,9.99
2023-04-17T05:19:12.416Z,10.03
2023-04-17T05:21:47.267Z,10.05
2023-04-17T05:24:16.684Z,10.08
2023-04-17T05:26:44.969Z,10.11
2023-04-17T05:29:14.472Z,10.13
2023-04-17T05:31:43.649Z,10.17
2023-04-17T05:34:22.404Z,10.25
2023-04-17T05:36:50.920Z,10.31
2023-04-17T05:39:19.421Z,10.41
2023-04-17T05:41:47.488Z,10.55
2023-04-17T05:44:15.668Z,10.72
2023-04-17T05:46:43.944Z,10.89
2023-04-17T05:49:13.079Z,11.14
2023-04-17T05:51:41.506Z,11.43
2023-04-17T05:54:09.975Z,11.69
2023-04-17T05:56:39.488Z,11.91
2023-04-17T05:59:07.775Z,12.07
2023-04-17T06:01:36.558Z,12.15
2023-04-17T06:04:05.998Z,12.19
2023-04-17T06:06:34.368Z,12.13
2023-04-17T06:09:04.601Z,12.03
2023-04-17T06:11:33.884Z,11.96
2023-04-17T06:14:02.284Z,11.95
2023-04-17T06:16:31.081Z,11.99
2023-04-17T06:18:59.129Z,12.07
2023-04-17T06:21:29.426Z,12.16
2023-04-17T06:24:01.908Z,12.31
2023-04-17T06:26:30.261Z,12.57
2023-04-17T06:28:58.639Z,12.80
2023-04-17T06:31:27.942Z,13.08
2023-04-17T06:33:56.283Z,13.41
2023-04-17T06:36:27.991Z,13.55
2023-04-17T06:38:58.613Z,13.58
2023-04-17T06:41:27.007Z,13.55
2023-04-17T06:43:55.283Z,13.48
2023-04-17T06:46:23.477Z,13.33
2023-04-17T06:48:52.448Z,13.15
2023-04-17T06:51:21.296Z,12.95
2023-04-17T06:53:49.347Z,12.76
2023-04-17T06:56:17.390Z,12.65
2023-04-17T06:58:45.742Z,12.49
2023-04-17T07:01:14.455Z,12.36
2023-04-17T07:03:43.207Z,12.27
2023-04-17T07:06:11.692Z,12.21
2023-04-17T07:08:40.470Z,12.11
2023-04-17T07:11:08.766Z,12.07
2023-04-17T07:13:36.923Z,12.04
2023-04-17T07:16:06.455Z,12.02
2023-04-17T07:18:35.051Z,11.98
2023-04-17T07:21:03.345Z,12.02
2023-04-17T07:23:31.458Z,12.06
2023-04-17T07:25:59.817Z,12.12
2023-04-17T07:28:27.890Z,12.17
2023-04-17T07:30:58.303Z,12.18
2023-04-17T07:33:26.680Z,12.19
2023-04-17T07:35:54.847Z,12.21
2023-04-17T07:38:25.033Z,12.31
2023-04-17T07:40:53.066Z,12.45
2023-04-17T07:43:21.169Z,12.61
2023-04-17T07:45:49.186Z,12.79
2023-04-17T07:48:19.302Z,12.92
2023-04-17T07:50:47.505Z,13.02
2023-04-17T07:53:15.750Z,13.11
2023-04-17T07:55:43.804Z,13.15
2023-04-17T07:58:11.828Z,13.17
2023-04-17T08:00:41.390Z,13.24
2023-04-17T08:03:09.760Z,13.18
2023-04-17T08:05:38.192Z,13.01
2023-04-17T08:08:06.407Z,12.84
2023-04-17T08:10:34.683Z,12.77
2023-04-17T08:13:02.766Z,12.72
2023-04-17T08:15:31.085Z,12.69
2023-04-17T08:17:59.217Z,12.74
2023-04-17T08:20:27.350Z,12.85
2023-04-17T08:22:55.474Z,12.95
2023-04-17T08:25:23.775Z,13.00
2023-04-17T08:27:51.875Z,13.05
2023-04-17T08:30:20.373Z,13.06
2023-04-17T08:32:49.028Z,13.04
2023-04-17T08:35:17.710Z,12.98
2023-04-17T08:37:47.022Z,12.95
2023-04-17T08:40:16.086Z,12.89
2023-04-17T08:42:44.427Z,12.83
2023-04-17T08:45:13.123Z,12.77
2023-04-17T08:47:42.453Z,12.72
2023-04-17T08:50:12.034Z,12.75
2023-04-17T08:52:42.705Z,12.81
2023-04-17T08:55:15.647Z,12.87
2023-04-17T08:58:06.847Z,12.93
2023-04-17T09:00:36.408Z,13.01
2023-04-17T09:03:07.793Z,13.05
2023-04-17T09:05:37.363Z,13.03
2023-04-17T09:08:24.304Z,13.04
2023-04-17T09:10:55.943Z,12.92
2023-04-17T09:13:31.068Z,12.72
2023-04-17T09:16:13.273Z,12.59
2023-04-17T09:18:43.260Z,12.57
2023-04-17T09:21:12.398Z,12.63
2023-04-17T09:23:55.564Z,12.69
2023-04-17T09:26:27.315Z,12.74
2023-04-17T09:29:11.881Z,12.76
2023-04-17T09:31:42.523Z,12.77
2023-04-17T09:34:12.170Z,12.73
2023-04-17T09:36:42.281Z,12.64
2023-04-17T09:39:24.082Z,12.54
2023-04-17T09:42:05.689Z,12.50
2023-04-17T09:44:37.032Z,12.52
2023-04-17T09:47:05.369Z,12.55
2023-04-17T09:49:42.805Z,12.57
2023-04-17T09:52:12.258Z,12.56
2023-04-17T09:54:40.251Z,12.47
2023-04-17T09:57:09.315Z,12.43
2023-04-17T09:59:41.967Z,12.45
2023-04-17T10:02:12.990Z,12.48
2023-04-17T10:04:44.392Z,12.52
2023-04-17T10:07:13.339Z,12.62
2023-04-17T10:09:42.197Z,12.79
2023-04-17T10:12:17.964Z,12.96
2023-04-17T10:14:49.988Z,13.08
2023-04-17T10:17:31.892Z,13.12
2023-04-17T10:20:15.691Z,13.08
2023-04-17T10:22:45.099Z,13.05
2023-04-17T10:25:13.275Z,13.01
2023-04-17T10:27:41.662Z,13.00
2023-04-17T10:30:13.088Z,13.00
2023-04-17T10:32:47.383Z,13.07
2023-04-17T10:35:19.515Z,13.14
2023-04-17T10:37:47.785Z,13.19
2023-04-17T10:40:27.279Z,13.29
2023-04-17T10:43:22.822Z,13.39
2023-04-17T10:46:00.512Z,13.54
2023-04-17T10:48:36.905Z,13.67
2023-04-17T10:51:27.842Z,13.75
2023-04-17T10:53:56.378Z,13.80
2023-04-17T10:56:29.507Z,13.82
2023-04-17T10:58:58.922Z,13.86
2023-04-17T11:01:47.922Z,13.91
2023-04-17T11:04:29.905Z,13.97
2023-04-17T11:06:58.202Z,14.01
2023-04-17T11:09:28.320Z,14.06
2023-04-17T11:11:59.141Z,14.14
2023-04-17T11:14:27.732Z,14.19
2023-04-17T11:16:55.863Z,14.22
2023-04-17T11:19:24.674Z,14.29
2023-04-17T11:21:54.789Z,14.36
2023-04-17T11:24:24.097Z,14.37
2023-04-17T11:26:52.205Z,14.37
2023-04-17T11:29:22.122Z,14.41
2023-04-17T11:31:52.541Z,14.45
2023-04-17T11:34:20.768Z,14.45
2023-04-17T11:37:06.663Z,14.45
2023-04-17T11:39:35.112Z,14.50
2023-04-17T11:42:04.003Z,14.57
2023-04-17T11:44:32.719Z,14.58
2023-04-17T11:47:01.702Z,14.61
2023-04-17T11:49:31.407Z,14.63
2023-04-17T11:52:00.748Z,14.75
2023-04-17T11:54:29.826Z,14.99
2023-04-17T11:57:18.501Z,15.11
2023-04-17T11:59:46.707Z,15.10
2023-04-17T12:02:15.513Z,15.04
2023-04-17T12:04:44.028Z,14.99
2023-04-17T12:07:21.778Z,14.94
2023-04-17T12:09:59.033Z,14.89
2023-04-17T12:12:27.121Z,14.85
2023-04-17T12:14:55.530Z,14.82
2023-04-17T12:17:23.672Z,14.83
2023-04-17T12:19:51.960Z,14.86
2023-04-17T12:22:19.937Z,14.90
2023-04-17T12:24:47.984Z,14.94
2023-04-17T12:27:17.142Z,14.99
2023-04-17T12:29:45.411Z,15.05
2023-04-17T12:32:15.349Z,15.09
2023-04-17T12:34:43.365Z,15.13
2023-04-17T12:37:11.784Z,15.20
2023-04-17T12:39:39.890Z,15.28
2023-04-17T12:42:08.621Z,15.36
2023-04-17T12:44:36.878Z,15.42
2023-04-17T12:47:04.961Z,15.43
2023-04-17T12:49:33.381Z,15.41
2023-04-17T12:52:03.595Z,15.39
2023-04-17T12:54:33.211Z,15.39
2023-04-17T12:57:01.904Z,15.41
2023-04-17T12:59:30.192Z,15.46
2023-04-17T13:01:58.406Z,15.49
2023-04-17T13:04:26.763Z,15.54
2023-04-17T13:06:54.972Z,15.58
2023-04-17T13:09:22.980Z,15.63
2023-04-17T13:11:51.249Z,15.65
2023-04-17T13:14:19.280Z,15.63
2023-04-17T13:16:48.893Z,15.62
2023-04-17T13:19:17.002Z,15.61
2023-04-17T13:21:45.149Z,15.60
2023-04-17T13:24:15.014Z,15.61
2023-04-17T13:26:46.057Z,15.61
2023-04-17T13:29:16.424Z,15.61
2023-04-17T13:31:46.824Z,15.57
2023-04-17T13:34:15.780Z,15.53
2023-04-17T13:36:45.118Z,15.48
2023-04-17T13:39:13.421Z,15.46
2023-04-17T13:41:42.176Z,15.44
2023-04-17T13:44:10.231Z,15.41
2023-04-17T13:46:38.606Z,15.39
2023-04-17T13:49:07.744Z,15.38
2023-04-17T13:51:36.839Z,15.34
2023-04-17T13:54:04.907Z,15.33
2023-04-17T13:56:32.970Z,15.32
2023-04-17T13:59:01.136Z,15.31
2023-04-17T14:01:29.430Z,15.29
2023-04-17T14:04:00.778Z,15.28
2023-04-17T14:06:29.904Z,15.27
2023-04-17T14:08:58.073Z,15.25
2023-04-17T14:11:26.219Z,15.22
2023-04-17T14:13:54.362Z,15.21
2023-04-17T14:16:22.428Z,15.21
2023-04-17T14:18:50.705Z,15.20
2023-04-17T14:21:18.783Z,15.18
2023-04-17T14:23:46.817Z,15.18
2023-04-17T14:26:14.851Z,15.16
2023-04-17T14:28:43.150Z,15.12
2023-04-17T14:31:11.350Z,15.07
2023-04-17T14:33:39.645Z,15.05
2023-04-17T14:36:07.849Z,15.02
2023-04-17T14:38:36.777Z,15.02
2023-04-17T14:41:05.600Z,15.02
2023-04-17T14:43:33.945Z,15.01
2023-04-17T14:46:02.308Z,15.00
2023-04-17T14:48:32.728Z,14.99
2023-04-17T14:51:02.589Z,14.96
2023-04-17T14:53:30.832Z,14.94
2023-04-17T14:56:00.229Z,14.93
2023-04-17T14:58:28.268Z,14.91
2023-04-17T15:00:56.474Z,14.89
2023-04-17T15:03:24.706Z,14.87
2023-04-17T15:05:54.112Z,14.86
2023-04-17T15:08:22.619Z,14.84
2023-04-17T15:10:51.728Z,14.80
2023-04-17T15:13:20.230Z,14.76
2023-04-17T15:15:48.471Z,14.75
2023-04-17T15:18:17.169Z,14.72
2023-04-17T15:20:46.401Z,14.71
2023-04-17T15:23:17.785Z,14.68
2023-04-17T15:25:45.843Z,14.67
2023-04-17T15:28:13.919Z,14.65
2023-04-17T15:30:42.080Z,14.63
2023-04-17T15:33:10.593Z,14.61
2023-04-17T15:35:39.166Z,14.56
2023-04-17T15:38:07.748Z,14.51
2023-04-17T15:40:36.522Z,14.50
2023-04-17T15:43:04.620Z,14.46
2023-04-17T15:45:33.897Z,14.43
2023-04-17T15:48:02.166Z,14.40
2023-04-17T15:50:30.824Z,14.35
2023-04-17T15:52:58.838Z,14.32
2023-04-17T15:55:26.969Z,14.28
2023-04-17T15:57:55.297Z,14.24
2023-04-17T16:00:23.362Z,14.22
2023-04-17T16:02:52.082Z,14.20
2023-04-17T16:05:21.082Z,14.16
2023-04-17T16:07:49.213Z,14.13
2023-04-17T16:10:19.061Z,14.11
2023-04-17T16:12:47.719Z,14.08
2023-04-17T16:15:17.154Z,14.06
2023-04-17T16:17:45.989Z,14.02
2023-04-17T16:20:14.199Z,13.99
2023-04-17T16:22:42.335Z,13.95
2023-04-17T16:25:12.362Z,13.91
2023-04-17T16:27:40.753Z,13.86
2023-04-17T16:30:09.415Z,13.82
2023-04-17T16:32:37.872Z,13.78
2023-04-17T16:35:07.335Z,13.74
2023-04-17T16:37:35.614Z,13.70
2023-04-17T16:40:05.349Z,13.65
2023-04-17T16:42:33.896Z,13.60
2023-04-17T16:45:02.026Z,13.55
2023-04-17T16:47:30.441Z,13.50
2023-04-17T16:49:58.646Z,13.44
2023-04-17T16:52:26.826Z,13.40
2023-04-17T16:54:54.802Z,13.36
2023-04-17T16:57:22.796Z,13.31
2023-04-17T16:59:50.869Z,13.27
2023-04-17T17:02:19.056Z,13.22
2023-04-17T17:04:47.421Z,13.18
2023-04-17T17:07:16.199Z,13.14
2023-04-17T17:09:44.302Z,13.10
2023-04-17T17:12:12.326Z,13.09
2023-04-17T17:14:40.965Z,13.06
2023-04-17T17:17:09.055Z,13.03
2023-04-17T17:19:37.335Z,13.00
2023-04-17T17:22:05.472Z,12.98
2023-04-17T17:24:33.796Z,12.96
2023-04-17T17:27:02.310Z,12.93
2023-04-17T17:29:30.578Z,12.91
2023-04-17T17:31:58.747Z,12.89
2023-04-17T17:34:27.413Z,12.87
2023-04-17T17:36:55.801Z,12.86
2023-04-17T17:39:24.351Z,12.85
2023-04-17T17:41:52.931Z,12.84
2023-04-17T17:44:23.602Z,12.83
2023-04-17T17:46:51.751Z,12.82
2023-04-17T17:49:19.757Z,12.81
2023-04-17T17:51:47.887Z,12.80
2023-04-17T17:54:16.347Z,12.79
2023-04-17T17:56:44.564Z,12.78
2023-04-17T17:59:12.887Z,12.76
2023-04-17T18:01:40.991Z,12.75
2023-04-17T18:04:09.263Z,12.74
2023-04-17T18:06:37.918Z,12.74
2023-04-17T18:09:05.934Z,12.73
2023-04-17T18:11:34.916Z,12.71
2023-04-17T18:14:03.032Z,12.69
2023-04-17T18:16:37.767Z,12.69
2023-04-17T18:19:06.813Z,12.67
2023-04-17T18:21:35.389Z,12.65
2023-04-17T18:24:03.623Z,12.64
2023-04-17T18:26:31.887Z,12.63
2023-04-17T18:29:00.411Z,12.63
2023-04-17T18:31:28.737Z,12.62
2023-04-17T18:33:56.962Z,12.62
2023-04-17T18:36:25.037Z,12.61
2023-04-17T18:38:53.207Z,12.61
2023-04-17T18:41:21.653Z,12.61
2023-04-17T18:43:49.848Z,12.61
2023-04-17T18:46:18.391Z,12.60
2023-04-17T18:48:46.620Z,12.60
2023-04-17T18:51:15.107Z,12.60
2023-04-17T18:53:43.601Z,12.61
2023-04-17T18:56:13.813Z,12.61
2023-04-17T18:58:42.203Z,12.61
2023-04-17T19:01:10.695Z,12.61
2023-04-17T19:03:39.406Z,12.61
2023-04-17T19:06:07.678Z,12.61
2023-04-17T19:08:36.453Z,12.60
2023-04-17T19:11:04.620Z,12.59
2023-04-17T19:13:32.802Z,12.59
2023-04-17T19:16:01.229Z,12.59
2023-04-17T19:18:29.878Z,12.59
2023-04-17T19:20:57.977Z,12.57
2023-04-17T19:23:26.651Z,12.57
2023-04-17T19:25:55.239Z,12.56
2023-04-17T19:28:23.489Z,12.56
2023-04-17T19:30:51.600Z,12.54
2023-04-17T19:33:20.431Z,12.53
2023-04-17T19:35:52.559Z,12.52
2023-04-17T19:38:21.523Z,12.51
2023-04-17T19:41:09.687Z,12.50
2023-04-17T19:43:37.851Z,12.48
2023-04-17T19:46:06.143Z,12.48
2023-04-17T19:48:34.431Z,12.46
2023-04-17T19:51:06.915Z,12.46
2023-04-17T19:53:36.430Z,12.44
2023-04-17T19:56:07.647Z,12.42
2023-04-17T19:58:37.043Z,12.40
2023-04-17T20:01:05.445Z,12.37
2023-04-17T20:03:35.696Z,12.35
2023-04-17T20:06:04.141Z,12.32
2023-04-17T20:08:32.467Z,12.30
2023-04-17T20:11:01.029Z,12.28
2023-04-17T20:13:29.361Z,12.25
2023-04-17T20:15:57.486Z,12.23
2023-04-17T20:18:25.881Z,12.21
2023-04-17T20:20:54.070Z,12.20
2023-04-17T20:23:22.354Z,12.18
2023-04-17T20:25:51.048Z,12.17
2023-04-17T20:28:19.298Z,12.17
2023-04-17T20:30:47.600Z,12.17
2023-04-17T20:33:16.061Z,12.17
2023-04-17T20:35:44.580Z,12.16
2023-04-17T20:38:12.610Z,12.15
2023-04-17T20:40:40.972Z,12.14
2023-04-17T20:43:09.004Z,12.13
2023-04-17T20:45:37.268Z,12.12
2023-04-17T20:48:05.566Z,12.09
2023-04-17T20:50:33.841Z,12.07
2023-04-17T20:53:01.916Z,12.06
2023-04-17T20:55:30.039Z,12.04
2023-04-17T20:57:58.079Z,12.03
2023-04-17T21:00:26.270Z,12.02
2023-04-17T21:02:54.739Z,12.01
2023-04-17T21:05:23.201Z,11.97
2023-04-17T21:07:51.812Z,11.95
2023-04-17T21:10:20.537Z,11.93
2023-04-17T21:12:48.565Z,11.90
2023-04-17T21:15:16.867Z,11.86
2023-04-17T21:17:47.857Z,11.81
2023-04-17T21:20:16.189Z,11.76
2023-04-17T21:22:44.504Z,11.72
2023-04-17T21:25:12.763Z,11.67
2023-04-17T21:27:41.956Z,11.61
2023-04-17T21:30:11.096Z,11.57
2023-04-17T21:32:40.123Z,11.53
2023-04-17T21:35:09.141Z,11.48
2023-04-17T21:37:37.648Z,11.43
2023-04-17T21:40:06.540Z,11.40
2023-04-17T21:42:35.234Z,11.36
2023-04-17T21:45:03.419Z,11.33
2023-04-17T21:47:31.817Z,11.30
2023-04-17T21:50:00.578Z,11.27
2023-04-17T21:52:28.766Z,11.23
2023-04-17T21:55:03.075Z,11.20
2023-04-17T21:57:31.884Z,11.16
2023-04-17T22:00:01.435Z,11.12
2023-04-17T22:02:29.871Z,11.08
2023-04-17T22:04:58.055Z,11.05
2023-04-17T22:07:26.080Z,11.03
2023-04-17T22:09:54.226Z,11.02
2023-04-17T22:12:22.393Z,11.00
2023-04-17T22:14:50.675Z,10.97
2023-04-17T22:17:18.758Z,10.96
2023-04-17T22:19:46.873Z,10.95
2023-04-17T22:22:15.111Z,10.95
2023-04-17T22:24:43.390Z,10.94
2023-04-17T22:27:11.672Z,10.94
2023-04-17T22:29:39.713Z,10.93
2023-04-17T22:32:07.888Z,10.90
2023-04-17T22:34:36.056Z,10.88
2023-04-17T22:37:04.180Z,10.87
2023-04-17T22:39:32.766Z,10.87
2023-04-17T22:42:01.280Z,10.86
2023-04-17T22:44:29.638Z,10.85
2023-04-17T22:46:57.706Z,10.84
2023-04-17T22:49:25.794Z,10.83
2023-04-17T22:51:53.839Z,10.82
2023-04-17T22:54:23.259Z,10.81
2023-04-17T22:56:51.861Z,10.80
2023-04-17T22:59:19.942Z,10.79
2023-04-17T23:01:48.082Z,10.78
2023-04-17T23:04:16.368Z,10.78
2023-04-17T23:06:44.781Z,10.77
2023-04-17T23:09:13.058Z,10.75
2023-04-17T23:11:41.576Z,10.75
2023-04-17T23:14:11.414Z,10.74
2023-04-17T23:16:39.794Z,10.73
2023-04-17T23:19:07.794Z,10.72
2023-04-17T23:21:37.023Z,10.72
2023-04-17T23:24:05.203Z,10.71
2023-04-17T23:26:33.486Z,10.69
2023-04-17T23:29:01.650Z,10.69
2023-04-17T23:31:29.782Z,10.68
2023-04-17T23:33:57.867Z,10.67
2023-04-17T23:36:25.962Z,10.65
2023-04-17T23:38:54.280Z,10.64
2023-04-17T23:41:22.430Z,10.63
2023-04-17T23:43:52.131Z,10.64
2023-04-17T23:46:20.283Z,10.61
2023-04-17T23:48:48.535Z,10.61
2023-04-17T23:51:17.027Z,10.62
2023-04-17T23:53:45.568Z,10.62
2023-04-17T23:56:13.786Z,10.60
2023-04-17T23:58:42.068Z,10.59
